Time;durP1;ratioP1;P1;durP2;ratioP2;P2;SDS_P1;SDS_P2;PMS_P1;PMS_P2;Temp;Humidity;BMP_temperature;BMP_pressure;BME280_temperature;BME280_humidity;BME280_pressure;Samples;Min_cycle;Max_cycle;Signal;HPM_P1;HPM_P2
2023/08/03 00:01:06;;;;;;;2.40;1.80;;;17.50;1.00;;;;;;5055852;28;20490;-75
2023/08/03 00:03:33;;;;;;;1.90;1.70;;;17.50;1.00;;;;;;5054005;28;20551;-75
2023/08/03 00:06:00;;;;;;;2.90;2.40;;;17.50;1.00;;;;;;5056033;28;20469;-75
2023/08/03 00:08:28;;;;;;;10.73;9.73;;;17.50;1.00;;;;;;5055537;28;20539;-76
2023/08/03 00:10:55;;;;;;;2.50;2.30;;;17.40;1.00;;;;;;5056300;28;20594;-75
2023/08/03 00:13:22;;;;;;;3.63;2.10;;;17.40;1.00;;;;;;5054675;28;20562;-75
2023/08/03 00:15:49;;;;;;;1.93;1.80;;;17.40;1.00;;;;;;5056643;28;20469;-76
2023/08/03 00:18:16;;;;;;;5.87;2.23;;;17.40;1.00;;;;;;5055065;28;20497;-76
2023/08/03 00:20:43;;;;;;;1.60;1.50;;;17.40;1.00;;;;;;5056409;28;21042;-75
2023/08/03 00:23:09;;;;;;;1.80;1.70;;;17.40;1.00;;;;;;5052496;28;20462;-76
2023/08/03 00:25:38;;;;;;;3.40;2.30;;;17.40;1.00;;;;;;5054236;28;20454;-76
2023/08/03 00:28:05;;;;;;;2.10;1.60;;;17.40;1.00;;;;;;5056157;28;20488;-76
2023/08/03 00:30:33;;;;;;;2.13;1.83;;;17.30;1.00;;;;;;5051802;28;20464;-76
2023/08/03 00:32:59;;;;;;;1.97;1.60;;;17.30;1.00;;;;;;5055465;28;20571;-76
2023/08/03 00:35:27;;;;;;;1.70;1.53;;;17.20;1.00;;;;;;5042883;28;20494;-76
2023/08/03 00:37:53;;;;;;;3.17;1.70;;;17.20;1.00;;;;;;5056218;28;20551;-76
2023/08/03 00:40:21;;;;;;;2.70;1.93;;;17.10;1.00;;;;;;5055437;28;21003;-76
2023/08/03 00:42:49;;;;;;;3.90;2.03;;;17.10;1.00;;;;;;5055938;28;20598;-76
2023/08/03 00:45:17;;;;;;;2.40;1.90;;;17.00;1.00;;;;;;5056126;28;20463;-76
2023/08/03 00:47:44;;;;;;;2.00;1.77;;;17.00;1.00;;;;;;5055422;28;20555;-76
2023/08/03 00:50:11;;;;;;;2.53;1.67;;;17.00;1.00;;;;;;5053141;28;20479;-75
2023/08/03 00:52:39;;;;;;;2.30;1.97;;;17.00;1.00;;;;;;5055413;28;21034;-75
2023/08/03 00:55:06;;;;;;;3.43;2.00;;;17.00;1.00;;;;;;5054314;28;20453;-75
2023/08/03 00:57:33;;;;;;;2.30;2.03;;;17.00;1.00;;;;;;5054754;28;20525;-74
2023/08/03 01:00:02;;;;;;;2.47;1.50;;;17.00;1.00;;;;;;5054740;28;20463;-75
2023/08/03 01:02:29;;;;;;;2.40;2.00;;;17.00;1.00;;;;;;5054738;28;20542;-75
2023/08/03 01:04:56;;;;;;;2.50;1.90;;;17.00;1.00;;;;;;5054910;28;20463;-75
2023/08/03 01:07:22;;;;;;;2.00;1.70;;;17.00;1.00;;;;;;5053816;28;20907;-75
2023/08/03 01:09:49;;;;;;;2.40;1.73;;;17.10;1.00;;;;;;5055480;28;20464;-75
2023/08/03 01:12:17;;;;;;;3.47;1.83;;;17.10;1.00;;;;;;5054621;28;20491;-75
2023/08/03 01:14:44;;;;;;;2.03;1.83;;;17.10;1.00;;;;;;5053786;28;20519;-75
2023/08/03 01:17:13;;;;;;;2.90;2.00;;;17.10;1.00;;;;;;5054027;28;20507;-76
2023/08/03 01:19:40;;;;;;;2.70;1.63;;;17.10;1.00;;;;;;5053100;28;20962;-76
2023/08/03 01:22:09;;;;;;;2.87;2.03;;;17.10;1.00;;;;;;5052795;28;20828;-75
2023/08/03 01:24:38;;;;;;;1.83;1.73;;;17.10;1.00;;;;;;5054260;28;20453;-76
2023/08/03 01:27:06;;;;;;;2.47;1.90;;;17.10;1.00;;;;;;5053255;28;20488;-76
2023/08/03 01:29:32;;;;;;;2.57;2.23;;;17.10;1.00;;;;;;5055347;28;20455;-75
2023/08/03 01:32:00;;;;;;;3.97;2.27;;;17.10;1.00;;;;;;5054173;28;20485;-75
2023/08/03 01:34:28;;;;;;;2.43;2.10;;;17.10;1.00;;;;;;5051936;28;20461;-75
2023/08/03 01:36:56;;;;;;;2.40;1.97;;;17.10;1.00;;;;;;5055142;28;20957;-76
2023/08/03 01:39:24;;;;;;;2.57;2.07;;;17.10;1.00;;;;;;5053773;28;20542;-75
2023/08/03 01:41:53;;;;;;;2.57;2.10;;;17.00;1.00;;;;;;5054474;28;20425;-76
2023/08/03 01:44:23;;;;;;;4.20;1.90;;;17.00;1.00;;;;;;5053101;28;20453;-76
2023/08/03 01:46:51;;;;;;;2.40;2.20;;;17.00;1.00;;;;;;5054728;28;20537;-76
2023/08/03 01:49:18;;;;;;;2.67;1.80;;;17.00;1.00;;;;;;5053397;28;21126;-77
2023/08/03 01:51:45;;;;;;;2.10;1.97;;;17.00;1.00;;;;;;5054876;28;20484;-76
2023/08/03 01:54:13;;;;;;;3.03;2.27;;;17.00;1.00;;;;;;5051516;28;20621;-76
2023/08/03 01:56:40;;;;;;;3.37;2.00;;;17.00;1.00;;;;;;5053073;28;20465;-76
2023/08/03 01:59:09;;;;;;;2.70;2.20;;;16.90;1.00;;;;;;5054101;28;20464;-76
2023/08/03 02:01:39;;;;;;;4.73;2.30;;;17.00;1.00;;;;;;5053945;28;20510;-76
2023/08/03 02:04:06;;;;;;;3.97;2.53;;;16.90;1.00;;;;;;5053520;28;20519;-76
2023/08/03 02:06:33;;;;;;;2.33;2.13;;;16.90;1.00;;;;;;5053021;28;20469;-75
2023/08/03 02:09:00;;;;;;;2.87;2.67;;;17.00;1.00;;;;;;5054107;28;20980;-75
2023/08/03 02:11:27;;;;;;;3.47;2.20;;;17.00;1.00;;;;;;5053963;28;20592;-76
2023/08/03 02:13:54;;;;;;;2.40;2.20;;;17.00;1.00;;;;;;5054275;28;20457;-75
2023/08/03 02:16:24;;;;;;;2.40;2.20;;;17.10;1.00;;;;;;5052343;28;20477;-75
2023/08/03 02:18:51;;;;;;;3.70;2.50;;;17.10;1.00;;;;;;5052345;28;20959;-76
2023/08/03 02:21:18;;;;;;;4.00;2.70;;;17.10;1.00;;;;;;5054010;28;20486;-76
2023/08/03 02:23:45;;;;;;;2.27;2.07;;;17.10;1.00;;;;;;5053890;28;20456;-76
2023/08/03 02:26:12;;;;;;;3.40;2.40;;;17.10;1.00;;;;;;5052786;28;20464;-76
2023/08/03 02:28:39;;;;;;;2.53;2.30;;;17.10;1.00;;;;;;5052497;28;20488;-76
2023/08/03 02:31:05;;;;;;;3.13;2.40;;;17.10;1.00;;;;;;5051305;28;20952;-76
2023/08/03 02:33:34;;;;;;;2.80;2.37;;;17.10;1.00;;;;;;5051590;28;20618;-76
2023/08/03 02:36:01;;;;;;;3.43;2.40;;;17.10;1.00;;;;;;5054041;28;20988;-76
2023/08/03 02:38:27;;;;;;;2.30;2.10;;;17.10;1.00;;;;;;5051765;28;21623;-76
2023/08/03 02:40:57;;;;;;;2.23;2.03;;;17.00;1.00;;;;;;5054449;28;20488;-76
2023/08/03 02:43:26;;;;;;;3.00;2.80;;;17.10;1.00;;;;;;5053291;28;20552;-76
2023/08/03 02:45:54;;;;;;;2.87;2.50;;;17.10;1.00;;;;;;5054418;28;20475;-76
2023/08/03 02:48:21;;;;;;;3.60;2.20;;;17.10;1.00;;;;;;5051615;28;20596;-76
2023/08/03 02:50:49;;;;;;;4.53;2.70;;;17.10;1.00;;;;;;5053796;28;20484;-75
2023/08/03 02:53:16;;;;;;;2.87;2.63;;;17.10;1.00;;;;;;5050948;28;20942;-75
2023/08/03 02:55:43;;;;;;;4.00;2.70;;;17.10;1.00;;;;;;5053119;28;20468;-75
2023/08/03 02:58:10;;;;;;;3.27;2.80;;;17.20;1.00;;;;;;5051425;28;21037;-76
2023/08/03 03:00:37;;;;;;;3.00;2.70;;;17.20;1.00;;;;;;5054613;28;20567;-75
2023/08/03 03:03:04;;;;;;;2.97;2.60;;;17.20;1.00;;;;;;5052874;28;20957;-75
2023/08/03 03:05:31;;;;;;;3.20;2.63;;;17.10;1.00;;;;;;5053216;28;20548;-76
2023/08/03 03:07:59;;;;;;;4.63;2.63;;;17.20;1.00;;;;;;5051699;28;20452;-76
2023/08/03 03:10:26;;;;;;;3.77;2.57;;;17.20;1.00;;;;;;5050012;28;20537;-76
2023/08/03 03:12:53;;;;;;;3.60;2.43;;;17.10;1.00;;;;;;5052590;28;20465;-76
2023/08/03 03:15:20;;;;;;;3.13;2.53;;;17.10;1.00;;;;;;5051690;28;20480;-76
2023/08/03 03:17:47;;;;;;;5.27;2.50;;;17.10;1.00;;;;;;5049634;28;20495;-76
2023/08/03 03:20:14;;;;;;;3.20;2.73;;;17.10;1.00;;;;;;5048163;28;21034;-76
2023/08/03 03:22:41;;;;;;;4.70;2.60;;;17.00;1.00;;;;;;5052520;28;20468;-77
2023/08/03 03:25:10;;;;;;;2.90;2.50;;;17.00;1.00;;;;;;5052005;28;20492;-77
2023/08/03 03:27:37;;;;;;;5.93;2.80;;;16.90;1.00;;;;;;5052028;28;20976;-76
2023/08/03 03:30:05;;;;;;;4.47;3.07;;;16.90;1.00;;;;;;5052495;28;20536;-76
2023/08/03 03:32:32;;;;;;;5.53;2.50;;;16.90;1.00;;;;;;5052566;28;20450;-76
2023/08/03 03:35:00;;;;;;;2.80;2.60;;;16.90;1.00;;;;;;5054003;28;20497;-76
2023/08/03 03:37:27;;;;;;;2.63;2.43;;;16.90;1.00;;;;;;5050357;28;20489;-76
2023/08/03 03:39:54;;;;;;;3.10;2.80;;;16.90;1.00;;;;;;5052478;28;20468;-76
2023/08/03 03:42:22;;;;;;;3.77;2.53;;;16.90;1.00;;;;;;5051310;28;20460;-76
2023/08/03 03:44:49;;;;;;;4.63;2.70;;;16.90;1.00;;;;;;5053722;28;20994;-76
2023/08/03 03:47:16;;;;;;;2.93;2.20;;;17.00;1.00;;;;;;5052498;28;20468;-77
2023/08/03 03:49:43;;;;;;;5.50;3.17;;;17.00;1.00;;;;;;5051928;28;21297;-76
2023/08/03 03:52:10;;;;;;;5.50;2.97;;;17.00;1.00;;;;;;5053434;28;20536;-75
2023/08/03 03:54:37;;;;;;;2.83;2.53;;;17.00;1.00;;;;;;5054051;28;21395;-76
2023/08/03 03:57:06;;;;;;;3.97;2.60;;;17.10;1.00;;;;;;5053656;28;20975;-76
2023/08/03 03:59:35;;;;;;;3.47;2.27;;;17.10;1.00;;;;;;5043713;28;20501;-76
2023/08/03 04:02:01;;;;;;;3.10;2.80;;;17.00;1.00;;;;;;5052760;28;20443;-76
2023/08/03 04:04:28;;;;;;;5.03;2.80;;;17.00;1.00;;;;;;5046090;28;20548;-76
2023/08/03 04:06:55;;;;;;;4.87;2.73;;;17.10;1.00;;;;;;5051705;28;20557;-76
2023/08/03 04:09:22;;;;;;;3.70;2.33;;;17.20;1.00;;;;;;5050309;28;20623;-76
2023/08/03 04:11:49;;;;;;;4.90;4.40;;;17.20;1.00;;;;;;5053289;28;20999;-76
2023/08/03 04:14:16;;;;;;;3.50;2.80;;;17.20;1.00;;;;;;5052919;28;20986;-77
2023/08/03 04:16:45;;;;;;;3.43;2.20;;;17.30;1.00;;;;;;5053707;28;20462;-76
2023/08/03 04:19:11;;;;;;;4.27;2.67;;;17.30;1.00;;;;;;5050202;28;20541;-76
2023/08/03 04:21:38;;;;;;;3.67;2.57;;;17.40;1.00;;;;;;5053314;28;20478;-76
2023/08/03 04:24:07;;;;;;;7.30;2.70;;;17.50;1.00;;;;;;5052794;28;20539;-75
2023/08/03 04:26:34;;;;;;;3.73;2.37;;;17.50;1.00;;;;;;5055379;28;20949;-76
2023/08/03 04:29:01;;;;;;;5.23;2.67;;;17.50;1.00;;;;;;5055607;28;20495;-76
2023/08/03 04:31:28;;;;;;;5.53;2.60;;;17.60;1.00;;;;;;5055966;28;20457;-76
2023/08/03 04:33:57;;;;;;;3.13;2.83;;;17.70;1.00;;;;;;5055550;28;20954;-74
2023/08/03 04:36:24;;;;;;;3.17;2.17;;;17.80;1.00;;;;;;5057333;28;20565;-76
2023/08/03 04:38:50;;;;;;;3.87;2.67;;;17.90;1.00;;;;;;5057338;28;20478;-76
2023/08/03 04:41:20;;;;;;;6.67;2.50;;;18.00;1.00;;;;;;5057398;28;20557;-76
2023/08/03 04:43:47;;;;;;;5.90;2.30;;;18.00;1.00;;;;;;5056004;28;21126;-76
2023/08/03 04:46:14;;;;;;;5.57;2.60;;;18.10;1.00;;;;;;5057058;28;20515;-76
2023/08/03 04:48:40;;;;;;;4.47;2.30;;;18.10;1.00;;;;;;5054999;28;20423;-76
2023/08/03 04:51:09;;;;;;;3.00;2.37;;;18.10;1.00;;;;;;5057593;28;20539;-75
2023/08/03 04:53:37;;;;;;;3.97;2.37;;;18.30;1.00;;;;;;5056542;28;20457;-76
2023/08/03 04:56:05;;;;;;;6.70;2.80;;;18.30;1.00;;;;;;5057385;28;20481;-75
2023/08/03 04:58:32;;;;;;;9.33;4.67;;;18.40;1.00;;;;;;5053442;28;20462;-76
2023/08/03 05:00:59;;;;;;;2.97;2.20;;;18.40;1.00;;;;;;5057126;28;20973;-75
2023/08/03 05:03:26;;;;;;;4.13;2.57;;;18.40;1.00;;;;;;5055455;28;20466;-76
2023/08/03 05:05:53;;;;;;;2.30;1.83;;;18.40;1.00;;;;;;5056312;28;20580;-75
2023/08/03 05:08:22;;;;;;;5.53;2.30;;;18.40;1.00;;;;;;5056076;28;20468;-76
2023/08/03 05:10:49;;;;;;;4.30;2.20;;;18.50;1.00;;;;;;5055135;28;20539;-76
2023/08/03 05:13:17;;;;;;;3.53;2.50;;;18.60;1.00;;;;;;5055508;28;20495;-75
2023/08/03 05:15:44;;;;;;;7.30;2.53;;;18.70;1.00;;;;;;5055441;28;20512;-75
2023/08/03 05:18:13;;;;;;;5.10;2.43;;;18.70;1.00;;;;;;5053396;28;20466;-75
2023/08/03 05:20:41;;;;;;;4.57;2.70;;;18.70;1.00;;;;;;5056474;28;20485;-76
2023/08/03 05:23:11;;;;;;;4.97;2.93;;;18.70;1.00;;;;;;5053182;28;21052;-76
2023/08/03 05:25:40;;;;;;;8.73;3.10;;;18.70;1.00;;;;;;5055199;28;20573;-76
2023/08/03 05:28:07;;;;;;;6.40;2.30;;;18.70;1.00;;;;;;5055313;28;20452;-76
2023/08/03 05:30:34;;;;;;;2.73;2.03;;;18.80;1.00;;;;;;5056326;28;20874;-75
2023/08/03 05:33:02;;;;;;;7.50;3.20;;;18.80;1.00;;;;;;5056560;28;20533;-75
2023/08/03 05:35:29;;;;;;;3.53;2.40;;;18.80;1.00;;;;;;5053572;28;20904;-75
2023/08/03 05:37:56;;;;;;;3.50;2.33;;;18.70;1.00;;;;;;5053387;28;20463;-76
2023/08/03 05:40:23;;;;;;;2.73;2.40;;;18.80;1.00;;;;;;5054295;28;20461;-76
2023/08/03 05:42:52;;;;;;;3.37;2.67;;;18.80;1.00;;;;;;5055626;28;20471;-76
2023/08/03 05:45:35;;;;;;;4.23;2.60;;;18.90;1.00;;;;;;5053723;28;20874;-76
2023/08/03 05:48:03;;;;;;;7.70;2.90;;;18.90;1.00;;;;;;5054792;28;20567;-75
2023/08/03 05:50:31;;;;;;;4.57;2.60;;;19.10;1.00;;;;;;5054248;28;20506;-75
2023/08/03 05:52:58;;;;;;;6.00;2.30;;;19.30;1.00;;;;;;5055270;28;20479;-75
2023/08/03 05:55:25;;;;;;;4.60;2.60;;;19.40;1.00;;;;;;5053899;28;20459;-76
2023/08/03 05:57:53;;;;;;;5.47;2.20;;;19.40;1.00;;;;;;5055011;28;20537;-76
2023/08/03 06:00:21;;;;;;;3.43;2.03;;;19.40;1.00;;;;;;5054353;28;20523;-76
2023/08/03 06:02:49;;;;;;;3.80;2.10;;;19.40;1.00;;;;;;5044647;28;20482;-76
2023/08/03 06:05:41;;;;;;;4.43;2.47;;;19.40;1.00;;;;;;5054671;28;20473;-79
2023/08/03 06:08:12;;;;;;;4.93;2.10;;;19.50;1.00;;;;;;5052600;28;21203;-79
2023/08/03 06:10:39;;;;;;;4.40;2.23;;;19.50;1.00;;;;;;5055276;28;20456;-79
2023/08/03 06:13:11;;;;;;;4.07;2.23;;;19.70;1.00;;;;;;5053472;28;20524;-79
2023/08/03 06:15:38;;;;;;;3.83;2.00;;;19.80;1.00;;;;;;5047932;28;20459;-79
2023/08/03 06:18:07;;;;;;;3.07;1.63;;;19.90;1.00;;;;;;5056707;28;20463;-79
2023/08/03 06:20:35;;;;;;;3.63;1.87;;;19.90;1.00;;;;;;5053874;28;20490;-78
2023/08/03 06:23:04;;;;;;;4.70;1.97;;;20.00;1.00;;;;;;5055086;28;21070;-78
2023/08/03 06:25:31;;;;;;;4.90;2.13;;;20.20;1.00;;;;;;5054881;28;20488;-78
2023/08/03 06:28:03;;;;;;;5.20;2.33;;;20.30;1.00;;;;;;5056097;28;20467;-77
2023/08/03 06:30:31;;;;;;;5.87;2.00;;;20.40;1.00;;;;;;5051768;28;20935;-79
2023/08/03 06:32:59;;;;;;;4.43;1.83;;;20.40;1.00;;;;;;5053235;28;20515;-79
2023/08/03 06:35:35;;;;;;;6.80;2.23;;;20.40;1.00;;;;;;5052792;28;20558;-79
2023/08/03 06:38:03;;;;;;;5.17;2.20;;;20.50;1.00;;;;;;5053706;28;20463;-79
2023/08/03 06:40:30;;;;;;;4.40;1.87;;;20.70;1.00;;;;;;5054571;28;20456;-77
2023/08/03 06:42:57;;;;;;;6.93;1.63;;;20.70;1.00;;;;;;5056860;28;20526;-79
2023/08/03 06:45:24;;;;;;;6.20;2.33;;;20.80;1.00;;;;;;5054521;28;20544;-78
2023/08/03 06:47:53;;;;;;;4.97;2.50;;;21.00;1.00;;;;;;5054721;28;20461;-79
2023/08/03 06:50:20;;;;;;;3.00;1.80;;;21.00;1.00;;;;;;5051910;28;20484;-80
2023/08/03 06:52:47;;;;;;;4.83;1.80;;;21.00;1.00;;;;;;5057248;28;20555;-79
2023/08/03 06:55:14;;;;;;;3.87;1.50;;;21.00;1.00;;;;;;5054736;28;20945;-78
2023/08/03 06:57:41;;;;;;;4.10;1.50;;;21.20;1.00;;;;;;5054903;28;20554;-81
2023/08/03 07:00:12;;;;;;;6.03;1.87;;;21.40;1.00;;;;;;5053076;28;20510;-80
2023/08/03 07:02:39;;;;;;;2.17;1.33;;;21.60;1.00;;;;;;5052967;28;20466;-80
2023/08/03 07:05:07;;;;;;;4.87;2.03;;;21.70;1.00;;;;;;5055061;28;20506;-79
2023/08/03 07:07:34;;;;;;;3.60;1.60;;;21.80;1.00;;;;;;5055494;28;20968;-78
2023/08/03 07:10:01;;;;;;;4.40;1.90;;;22.00;1.00;;;;;;5053752;28;20458;-79
2023/08/03 07:12:30;;;;;;;5.97;2.00;;;22.10;1.00;;;;;;5052595;28;20463;-79
2023/08/03 07:14:57;;;;;;;4.60;1.80;;;22.30;1.00;;;;;;5051113;28;20541;-76
2023/08/03 07:17:24;;;;;;;6.17;2.20;;;22.30;1.00;;;;;;5044694;28;20562;-75
2023/08/03 07:19:52;;;;;;;5.40;1.90;;;22.30;1.00;;;;;;5054579;28;20907;-74
2023/08/03 07:22:20;;;;;;;2.80;1.30;;;22.40;1.00;;;;;;5029058;28;21042;-75
2023/08/03 07:24:47;;;;;;;4.40;1.90;;;22.30;1.00;;;;;;5044874;28;20511;-76
2023/08/03 07:27:14;;;;;;;4.93;1.80;;;22.40;1.00;;;;;;5054202;28;20879;-76
2023/08/03 07:29:42;;;;;;;5.70;1.80;;;22.40;1.00;;;;;;5050167;28;20482;-76
2023/08/03 07:32:12;;;;;;;4.50;1.73;;;22.30;1.00;;;;;;5056231;28;20476;-75
2023/08/03 07:34:39;;;;;;;2.40;1.30;;;22.30;1.00;;;;;;5050464;28;20463;-75
2023/08/03 07:37:07;;;;;;;3.23;1.30;;;22.20;1.00;;;;;;5053903;28;20476;-76
2023/08/03 07:39:35;;;;;;;2.90;1.40;;;22.30;1.00;;;;;;5051546;28;20460;-75
2023/08/03 07:42:02;;;;;;;4.17;1.47;;;22.20;1.00;;;;;;5051426;28;20476;-76
2023/08/03 07:44:29;;;;;;;4.57;2.00;;;22.30;1.00;;;;;;5049448;28;20538;-77
2023/08/03 07:46:56;;;;;;;3.70;1.97;;;22.50;1.00;;;;;;5052435;28;20463;-75
2023/08/03 07:49:23;;;;;;;3.47;1.87;;;22.60;1.00;;;;;;5033680;28;20532;-75
2023/08/03 07:51:50;;;;;;;2.40;1.47;;;22.70;1.00;;;;;;5051582;28;21119;-75
2023/08/03 07:54:18;;;;;;;3.00;1.30;;;22.80;1.00;;;;;;5048942;28;20957;-75
2023/08/03 07:56:46;;;;;;;3.70;1.37;;;22.80;1.00;;;;;;5053030;28;20954;-76
2023/08/03 07:59:13;;;;;;;5.13;1.27;;;22.90;1.00;;;;;;5051808;28;20468;-75
2023/08/03 08:01:43;;;;;;;9.03;3.77;;;22.90;1.00;;;;;;5052061;28;21030;-76
2023/08/03 08:04:10;;;;;;;4.50;1.93;;;22.80;1.00;;;;;;5036053;28;20447;-75
2023/08/03 08:06:38;;;;;;;3.13;1.47;;;22.90;1.00;;;;;;5055823;28;20479;-75
2023/08/03 08:09:06;;;;;;;2.10;1.40;;;23.00;1.00;;;;;;5053527;28;20586;-75
2023/08/03 08:11:33;;;;;;;5.10;1.77;;;23.00;1.00;;;;;;5054550;28;20866;-76
2023/08/03 08:14:01;;;;;;;2.43;1.47;;;23.10;1.00;;;;;;5055966;28;20879;-73
2023/08/03 08:16:29;;;;;;;1.80;1.10;;;23.10;1.00;;;;;;5053880;28;20523;-76
2023/08/03 08:18:58;;;;;;;2.33;1.20;;;23.10;1.00;;;;;;5052523;28;20469;-76
2023/08/03 08:21:27;;;;;;;1.70;1.10;;;23.00;1.00;;;;;;5054874;28;20480;-76
2023/08/03 08:23:54;;;;;;;4.10;1.50;;;22.90;1.00;;;;;;5052356;28;20467;-75
2023/08/03 08:26:21;;;;;;;1.70;0.83;;;22.80;1.00;;;;;;5056905;28;20468;-75
2023/08/03 08:28:49;;;;;;;2.13;1.10;;;22.70;1.00;;;;;;5056149;28;20537;-76
2023/08/03 08:31:18;;;;;;;5.93;1.30;;;22.80;1.00;;;;;;5052855;28;20574;-76
2023/08/03 08:33:45;;;;;;;2.30;1.17;;;23.00;1.00;;;;;;5056027;28;20449;-76
2023/08/03 08:36:12;;;;;;;2.87;1.10;;;22.90;1.00;;;;;;5056433;28;20466;-76
2023/08/03 08:38:39;;;;;;;2.93;1.10;;;22.70;1.00;;;;;;5055548;28;20527;-75
2023/08/03 08:41:06;;;;;;;3.83;1.23;;;22.70;1.00;;;;;;5055432;28;20522;-76
2023/08/03 08:43:33;;;;;;;2.43;1.00;;;22.80;1.00;;;;;;5055755;28;20916;-75
2023/08/03 08:46:00;;;;;;;3.30;0.70;;;23.10;1.00;;;;;;5057355;28;20894;-77
2023/08/03 08:48:29;;;;;;;2.53;0.80;;;23.30;1.00;;;;;;5056214;28;20450;-74
2023/08/03 08:51:01;;;;;;;2.80;1.27;;;23.10;1.00;;;;;;5054715;28;20895;-76
2023/08/03 08:53:28;;;;;;;2.03;0.67;;;23.30;1.00;;;;;;5053029;28;21059;-76
2023/08/03 08:55:55;;;;;;;1.23;0.70;;;23.40;1.00;;;;;;5053693;28;20470;-76
2023/08/03 08:58:24;;;;;;;5.07;0.80;;;23.50;1.00;;;;;;5056627;28;20585;-75
2023/08/03 09:00:51;;;;;;;1.20;0.77;;;23.40;1.00;;;;;;5053779;28;20477;-75
2023/08/03 09:03:18;;;;;;;4.63;0.70;;;23.30;1.00;;;;;;5055324;28;20465;-76
2023/08/03 09:05:59;;;;;;;2.33;0.80;;;23.20;1.00;;;;;;5054819;28;20464;-75
2023/08/03 09:08:28;;;;;;;4.07;1.10;;;23.20;1.00;;;;;;5053955;28;20628;-76
2023/08/03 09:10:57;;;;;;;3.53;0.90;;;23.20;1.00;;;;;;5055148;28;20859;-77
2023/08/03 09:13:27;;;;;;;2.13;0.80;;;23.40;1.00;;;;;;5054540;28;20545;-76
2023/08/03 09:15:55;;;;;;;3.03;0.87;;;23.40;1.00;;;;;;5054979;28;20460;-76
2023/08/03 09:18:25;;;;;;;2.60;1.20;;;23.40;1.00;;;;;;5052528;28;20474;-76
2023/08/03 09:21:08;;;;;;;2.20;1.13;;;23.30;1.00;;;;;;5054475;28;20500;-75
2023/08/03 09:23:36;;;;;;;1.73;0.70;;;23.30;1.00;;;;;;5056251;28;20460;-75
2023/08/03 09:26:03;;;;;;;0.90;0.60;;;23.40;1.00;;;;;;5055748;28;20494;-76
2023/08/03 09:28:37;;;;;;;0.97;0.67;;;23.60;1.00;;;;;;5053567;28;20961;-76
2023/08/03 09:31:04;;;;;;;1.13;0.60;;;23.80;1.00;;;;;;5055108;28;21064;-75
2023/08/03 09:33:32;;;;;;;1.80;0.70;;;23.80;1.00;;;;;;5053209;28;20454;-76
2023/08/03 09:36:05;;;;;;;1.80;0.90;;;23.80;1.00;;;;;;5055294;28;20904;-74
2023/08/03 09:38:32;;;;;;;1.17;0.70;;;23.60;1.00;;;;;;5054447;28;20478;-74
2023/08/03 09:40:59;;;;;;;1.13;0.77;;;23.60;1.00;;;;;;5054132;28;20533;-74
2023/08/03 09:43:29;;;;;;;1.63;0.80;;;24.30;1.00;;;;;;5049666;28;20459;-74
2023/08/03 09:45:57;;;;;;;0.93;0.60;;;24.70;1.00;;;;;;5042354;28;20420;-74
2023/08/03 09:48:26;;;;;;;1.27;0.60;;;24.60;1.00;;;;;;5057356;28;20568;-74
2023/08/03 09:50:55;;;;;;;1.90;0.80;;;24.60;1.00;;;;;;5053747;28;20477;-74
2023/08/03 09:53:26;;;;;;;0.90;0.60;;;24.70;1.00;;;;;;5054922;28;20524;-75
2023/08/03 09:56:00;;;;;;;2.70;0.80;;;24.40;1.00;;;;;;5056537;28;20466;-74
2023/08/03 09:58:33;;;;;;;2.60;0.90;;;23.90;1.00;;;;;;5055128;28;20986;-74
2023/08/03 10:01:04;;;;;;;1.90;0.90;;;24.70;1.00;;;;;;5037894;28;20499;-74
2023/08/03 10:03:33;;;;;;;2.60;0.50;;;26.30;1.00;;;;;;5044038;28;20443;-75
2023/08/03 10:06:07;;;;;;;3.43;0.83;;;27.00;1.00;;;;;;5054191;28;20501;-75
2023/08/03 10:08:42;;;;;;;1.57;0.50;;;26.50;1.00;;;;;;5053170;28;20446;-75
2023/08/03 10:11:12;;;;;;;4.20;0.73;;;26.60;1.00;;;;;;5054502;28;20473;-76
2023/08/03 10:13:46;;;;;;;1.30;0.50;;;27.00;1.00;;;;;;5055319;28;20959;-75
2023/08/03 10:16:14;;;;;;;0.70;0.40;;;27.30;1.00;;;;;;5052381;28;20431;-75
2023/08/03 10:18:41;;;;;;;0.80;0.40;;;27.00;1.00;;;;;;5055054;28;20553;-74
2023/08/03 10:21:09;;;;;;;5.23;0.80;;;27.10;1.00;;;;;;5054133;28;20558;-74
2023/08/03 10:23:39;;;;;;;1.43;0.50;;;27.30;1.00;;;;;;5047593;28;20459;-74
2023/08/03 10:26:07;;;;;;;2.03;0.60;;;27.80;1.00;;;;;;5031092;28;20481;-74
2023/08/03 10:28:52;;;;;;;1.03;0.50;;;28.90;1.00;;;;;;5054724;28;20503;-74
2023/08/03 10:31:19;;;;;;;2.00;0.90;;;30.00;1.00;;;;;;5052108;28;20479;-73
2023/08/03 10:34:15;;;;;;;1.87;0.70;;;30.50;1.00;;;;;;5054674;28;20454;-74
2023/08/03 10:36:51;;;;;;;5.63;1.40;;;31.10;1.00;;;;;;4993828;28;20462;-74
2023/08/03 10:39:48;;;;;;;1.40;0.60;;;29.50;1.00;;;;;;5054479;28;20462;-74
2023/08/03 10:42:26;;;;;;;2.30;0.83;;;27.60;1.00;;;;;;5053477;28;20479;-75
2023/08/03 10:44:54;;;;;;;2.03;0.77;;;26.40;1.00;;;;;;5052188;28;21055;-74
2023/08/03 10:47:29;;;;;;;1.43;0.47;;;25.60;1.00;;;;;;5052851;28;20472;-74
2023/08/03 10:49:58;;;;;;;1.63;0.80;;;24.80;1.00;;;;;;5054867;28;20452;-75
2023/08/03 10:52:28;;;;;;;1.50;0.60;;;24.30;1.00;;;;;;5055349;28;20505;-76
2023/08/03 10:54:58;;;;;;;2.00;0.77;;;24.60;1.00;;;;;;5051516;28;20453;-75
2023/08/03 10:57:28;;;;;;;1.47;0.80;;;24.80;1.00;;;;;;5053948;28;20481;-75
2023/08/03 10:59:57;;;;;;;2.37;1.33;;;25.00;1.00;;;;;;5051170;28;20894;-75
2023/08/03 11:02:28;;;;;;;1.83;0.83;;;26.10;1.00;;;;;;5052184;28;20471;-73
2023/08/03 11:04:58;;;;;;;1.47;1.00;;;27.30;1.00;;;;;;5052076;28;20438;-74
2023/08/03 11:07:27;;;;;;;1.60;0.80;;;28.70;1.00;;;;;;5048246;28;20463;-74
2023/08/03 11:09:55;;;;;;;1.90;0.90;;;29.40;1.00;;;;;;5052194;28;20481;-73
2023/08/03 11:12:24;;;;;;;1.33;0.70;;;28.80;1.00;;;;;;5052700;28;20517;-74
2023/08/03 11:14:53;;;;;;;1.50;0.63;;;27.10;1.00;;;;;;5053691;28;20546;-74
2023/08/03 11:17:25;;;;;;;1.50;0.80;;;26.00;1.00;;;;;;5050903;28;20453;-74
2023/08/03 11:19:52;;;;;;;1.57;0.60;;;25.40;1.00;;;;;;5053445;28;20620;-76
2023/08/03 11:22:21;;;;;;;1.93;0.70;;;25.60;1.00;;;;;;5051994;28;20556;-75
2023/08/03 11:24:48;;;;;;;3.13;1.00;;;25.20;1.00;;;;;;5053675;28;20463;-75
2023/08/03 11:27:18;;;;;;;3.07;0.60;;;24.70;1.00;;;;;;5050866;28;21060;-74
2023/08/03 11:29:45;;;;;;;2.07;0.80;;;24.30;1.00;;;;;;5055333;28;20508;-74
2023/08/03 11:32:13;;;;;;;1.47;0.80;;;23.50;1.00;;;;;;5053101;28;20575;-74
2023/08/03 11:34:40;;;;;;;1.60;0.80;;;22.90;1.00;;;;;;5053458;28;20457;-76
2023/08/03 11:37:08;;;;;;;1.77;0.70;;;22.20;1.00;;;;;;5051501;28;20904;-75
2023/08/03 11:39:35;;;;;;;1.50;0.70;;;21.80;1.00;;;;;;5053674;28;20482;-76
2023/08/03 11:42:03;;;;;;;1.17;0.80;;;21.70;1.00;;;;;;5053475;28;20595;-76
2023/08/03 11:44:32;;;;;;;1.80;1.10;;;21.50;1.00;;;;;;5051465;28;20451;-76
2023/08/03 11:47:03;;;;;;;3.10;1.20;;;21.30;1.00;;;;;;5053226;28;20522;-75
2023/08/03 11:49:31;;;;;;;1.53;0.53;;;21.20;1.00;;;;;;5053101;28;20505;-75
2023/08/03 11:52:00;;;;;;;1.83;0.70;;;21.30;1.00;;;;;;5054051;28;20510;-73
2023/08/03 11:54:29;;;;;;;1.17;0.63;;;21.70;1.00;;;;;;5052652;28;20437;-74
2023/08/03 11:58:07;;;;;;;1.43;0.70;;;22.10;1.00;;;;;;5052698;28;20488;-75
2023/08/03 11:59:50;;;;;;;0.87;0.70;;;22.80;1.00;;;;;;5054557;28;20471;-74
2023/08/03 12:02:17;;;;;;;3.27;0.70;;;25.10;1.00;;;;;;5052546;28;20952;-75
2023/08/03 12:04:44;;;;;;;2.73;0.70;;;26.30;1.00;;;;;;5054569;28;20529;-74
2023/08/03 12:07:14;;;;;;;3.50;0.80;;;28.10;1.00;;;;;;5051770;28;20889;-79
2023/08/03 12:09:42;;;;;;;1.10;0.60;;;29.70;1.00;;;;;;5052592;28;20483;-79
2023/08/03 12:12:12;;;;;;;2.50;1.20;;;30.60;1.00;;;;;;5054622;28;20475;-79
2023/08/03 12:14:40;;;;;;;2.93;0.83;;;29.90;1.00;;;;;;5053889;28;20459;-79
2023/08/03 12:17:13;;;;;;;1.07;0.67;;;28.80;1.00;;;;;;5054046;28;20905;-79
2023/08/03 12:19:40;;;;;;;3.47;0.70;;;28.00;1.00;;;;;;5054683;28;20495;-78
2023/08/03 12:22:07;;;;;;;4.33;0.60;;;27.40;1.00;;;;;;5055793;28;20568;-78
2023/08/03 12:24:34;;;;;;;2.50;0.70;;;27.50;1.00;;;;;;5055206;28;20435;-79
2023/08/03 12:27:03;;;;;;;1.20;0.73;;;26.90;1.00;;;;;;5052148;28;20572;-79
2023/08/03 12:29:30;;;;;;;3.17;1.00;;;26.00;1.00;;;;;;5053613;28;20541;-78
2023/08/03 12:31:57;;;;;;;2.80;0.83;;;25.20;1.00;;;;;;5054531;28;20492;-79
2023/08/03 12:34:26;;;;;;;1.27;1.00;;;23.70;1.00;;;;;;5054629;28;20555;-79
2023/08/03 12:36:53;;;;;;;1.30;1.07;;;22.60;1.00;;;;;;5052801;28;20488;-79
2023/08/03 12:39:20;;;;;;;1.00;0.70;;;21.90;1.00;;;;;;5053575;28;20416;-78
2023/08/03 12:41:50;;;;;;;1.47;0.87;;;21.60;1.00;;;;;;5053369;28;21035;-78
2023/08/03 12:44:17;;;;;;;2.20;1.03;;;21.60;1.00;;;;;;5054207;28;20455;-80
2023/08/03 12:46:44;;;;;;;1.10;0.70;;;21.70;1.00;;;;;;5052529;28;21062;-79
2023/08/03 12:49:11;;;;;;;1.77;0.60;;;21.70;1.00;;;;;;5055200;28;20504;-78
2023/08/03 12:51:39;;;;;;;1.40;0.70;;;22.10;1.00;;;;;;5054363;28;21373;-79
2023/08/03 12:54:06;;;;;;;2.23;1.07;;;22.60;1.00;;;;;;5056586;28;20972;-79
2023/08/03 12:56:38;;;;;;;1.70;0.70;;;22.90;1.00;;;;;;5038657;28;20473;-79
2023/08/03 12:59:05;;;;;;;1.57;0.73;;;23.00;1.00;;;;;;5055886;28;20956;-80
2023/08/03 13:01:32;;;;;;;2.80;0.73;;;22.80;1.00;;;;;;5053649;28;20476;-79
2023/08/03 13:04:00;;;;;;;2.03;0.70;;;22.20;1.00;;;;;;5054720;28;20534;-79